createdAt,value
2019-06-15T00:02:26.159Z,21.43
2019-06-15T00:04:57.141Z,27.40
2019-06-15T00:07:28.109Z,16.40
2019-06-15T00:09:59.162Z,24.73
2019-06-15T00:12:30.126Z,17.13
2019-06-15T00:15:01.101Z,13.67
2019-06-15T00:17:32.058Z,27.00
2019-06-15T00:20:03.037Z,17.13
2019-06-15T00:22:34.021Z,30.00
2019-06-15T00:25:07.098Z,20.90
2019-06-15T00:27:38.049Z,19.67
2019-06-15T00:30:12.635Z,24.03
2019-06-15T00:32:43.580Z,18.50
2019-06-15T00:35:14.656Z,25.37
2019-06-15T00:37:45.629Z,29.07
2019-06-15T00:40:16.769Z,15.47
2019-06-15T00:42:47.712Z,17.30
2019-06-15T00:45:18.685Z,17.40
2019-06-15T00:47:49.637Z,21.30
2019-06-15T00:50:20.609Z,21.03
2019-06-15T00:52:51.556Z,25.40
2019-06-15T00:55:22.528Z,15.73
2019-06-15T00:57:53.479Z,20.23
2019-06-15T01:00:24.446Z,26.13
2019-06-15T01:02:55.385Z,23.87
2019-06-15T01:05:26.362Z,16.37
2019-06-15T01:07:57.393Z,23.17
2019-06-15T01:10:28.365Z,18.50
2019-06-15T01:12:59.256Z,14.00
2019-06-15T01:15:30.230Z,29.60
2019-06-15T01:18:01.173Z,19.43
2019-06-15T01:20:32.154Z,23.77
2019-06-15T01:23:03.134Z,26.90
2019-06-15T01:25:34.159Z,20.43
2019-06-15T01:28:05.200Z,15.90
2019-06-15T01:30:36.172Z,22.93
2019-06-15T01:33:07.112Z,19.30
2019-06-15T01:35:38.086Z,29.40
2019-06-15T01:38:09.024Z,23.30
2019-06-15T01:40:39.992Z,24.53
2019-06-15T01:43:10.946Z,28.63
2019-06-15T01:45:41.927Z,29.90
2019-06-15T01:48:12.874Z,26.73
2019-06-15T01:50:43.853Z,24.43
2019-06-15T01:53:14.798Z,35.27
2019-06-15T01:55:45.770Z,23.90
2019-06-15T01:58:16.729Z,24.97
2019-06-15T02:00:47.776Z,33.70
2019-06-15T02:03:18.730Z,27.23
2019-06-15T02:05:49.823Z,11.43
2019-06-15T02:08:21.820Z,27.07
2019-06-15T02:10:52.901Z,22.93
2019-06-15T02:13:23.844Z,25.13
2019-06-15T02:15:54.825Z,20.73
2019-06-15T02:18:25.769Z,17.40
2019-06-15T02:20:56.786Z,18.67
2019-06-15T02:23:27.728Z,16.63
2019-06-15T02:25:58.700Z,20.00
2019-06-15T02:28:29.647Z,20.57
2019-06-15T02:31:00.631Z,32.13
2019-06-15T02:33:31.604Z,20.67
2019-06-15T02:36:02.634Z,24.73
2019-06-15T02:38:33.581Z,23.73
2019-06-15T02:41:04.557Z,24.43
2019-06-15T02:43:35.498Z,21.17
2019-06-15T02:46:06.540Z,21.90
2019-06-15T02:48:37.485Z,27.27
2019-06-15T02:51:08.466Z,18.00
2019-06-15T02:53:39.429Z,29.23
2019-06-15T02:56:10.396Z,29.40
2019-06-15T02:58:41.279Z,26.47
2019-06-15T03:01:12.547Z,32.90
2019-06-15T03:03:43.497Z,20.63
2019-06-15T03:06:14.572Z,26.43
2019-06-15T03:08:46.117Z,34.30
2019-06-15T03:11:17.158Z,19.40
2019-06-15T03:13:48.209Z,33.77
2019-06-15T03:16:19.200Z,31.50
2019-06-15T03:18:50.162Z,27.13
2019-06-15T03:21:21.145Z,24.60
2019-06-15T03:23:52.076Z,22.33
2019-06-15T03:26:23.079Z,24.53
2019-06-15T03:28:54.077Z,26.03
2019-06-15T03:31:25.051Z,28.07
2019-06-15T03:33:55.996Z,21.13
2019-06-15T03:36:26.970Z,24.83
2019-06-15T03:38:57.908Z,20.07
2019-06-15T03:41:28.883Z,24.50
2019-06-15T03:43:59.818Z,22.60
2019-06-15T03:46:30.886Z,41.93
2019-06-15T03:49:01.864Z,25.50
2019-06-15T03:51:32.883Z,18.40
2019-06-15T03:54:03.844Z,19.70
2019-06-15T03:56:34.747Z,29.23
2019-06-15T03:59:05.762Z,28.90
2019-06-15T04:01:43.933Z,19.93
2019-06-15T04:04:14.877Z,58.73
2019-06-15T04:06:45.904Z,19.87
2019-06-15T04:09:16.840Z,18.07
2019-06-15T04:11:47.823Z,24.27
2019-06-15T04:14:18.777Z,35.53
2019-06-15T04:16:49.877Z,19.20
2019-06-15T04:19:20.840Z,37.43
2019-06-15T04:21:51.829Z,19.07
2019-06-15T04:24:22.776Z,35.10
2019-06-15T04:26:53.687Z,18.63
2019-06-15T04:29:24.666Z,23.70
2019-06-15T04:31:55.691Z,25.20
2019-06-15T04:34:26.698Z,40.77
2019-06-15T04:36:57.679Z,36.10
2019-06-15T04:39:28.638Z,32.40
2019-06-15T04:41:59.613Z,30.57
2019-06-15T04:44:30.563Z,19.97
2019-06-15T04:47:01.558Z,18.83
2019-06-15T04:49:32.579Z,30.77
2019-06-15T04:52:03.574Z,27.83
2019-06-15T04:54:34.577Z,35.17
2019-06-15T04:57:05.752Z,20.00
2019-06-15T04:59:36.701Z,24.17
2019-06-15T05:02:08.314Z,38.33
2019-06-15T05:04:39.288Z,33.83
2019-06-15T05:07:10.267Z,20.97
2019-06-15T05:09:42.209Z,22.57
2019-06-15T05:12:13.154Z,24.03
2019-06-15T05:14:44.144Z,44.60
2019-06-15T05:17:15.088Z,60.77
2019-06-15T05:19:46.059Z,34.33
2019-06-15T05:22:17.005Z,27.40
2019-06-15T05:24:48.002Z,24.67
2019-06-15T05:27:19.017Z,33.13
2019-06-15T05:29:49.986Z,41.67
2019-06-15T05:32:20.925Z,44.60
2019-06-15T05:34:51.908Z,25.43
2019-06-15T05:37:22.852Z,38.10
2019-06-15T05:39:53.830Z,44.27
2019-06-15T05:42:24.773Z,41.17
2019-06-15T05:44:55.749Z,36.93
2019-06-15T05:47:26.696Z,29.57
2019-06-15T05:49:57.670Z,33.23
2019-06-15T05:52:28.636Z,28.90
2019-06-15T05:54:59.662Z,27.83
2019-06-15T05:57:30.610Z,12.70
2019-06-15T06:00:01.588Z,45.30
2019-06-15T06:02:32.525Z,16.90
2019-06-15T06:05:04.299Z,23.73
2019-06-15T06:07:35.396Z,14.70
2019-06-15T06:10:10.714Z,32.97
2019-06-15T06:12:41.038Z,29.40
2019-06-15T06:15:12.205Z,19.80
2019-06-15T06:17:43.172Z,21.43
2019-06-15T06:20:15.617Z,37.77
2019-06-15T06:22:47.562Z,19.20
2019-06-15T06:25:18.539Z,24.10
2019-06-15T06:27:49.481Z,13.07
2019-06-15T06:30:20.457Z,30.13
2019-06-15T06:32:51.331Z,26.23
2019-06-15T06:35:22.308Z,26.90
2019-06-15T06:37:53.264Z,45.73
2019-06-15T06:40:24.418Z,12.23
2019-06-15T06:42:55.469Z,20.67
2019-06-15T06:45:26.446Z,26.87
2019-06-15T06:47:57.389Z,34.20
2019-06-15T06:50:28.385Z,33.73
2019-06-15T06:52:59.326Z,17.73
2019-06-15T06:55:30.296Z,21.57
2019-06-15T06:58:01.237Z,15.73
2019-06-15T07:00:32.228Z,15.30
2019-06-15T07:03:03.241Z,11.60
2019-06-15T07:05:34.286Z,25.47
2019-06-15T07:08:05.225Z,22.03
2019-06-15T07:10:36.196Z,20.00
2019-06-15T07:13:07.137Z,15.57
2019-06-15T07:15:38.102Z,18.43
2019-06-15T07:18:09.045Z,21.40
2019-06-15T07:20:40.018Z,17.93
2019-06-15T07:23:11.031Z,27.27
2019-06-15T07:25:42.006Z,6.10
2019-06-15T07:28:12.949Z,17.57
2019-06-15T07:30:43.848Z,13.03
2019-06-15T07:33:14.792Z,10.83
2019-06-15T07:35:45.764Z,13.57
2019-06-15T07:38:16.709Z,6.07
2019-06-15T07:40:47.691Z,10.03
2019-06-15T07:43:18.655Z,18.00
2019-06-15T07:45:49.688Z,5.33
2019-06-15T07:48:20.626Z,6.10
2019-06-15T07:50:51.596Z,12.57
2019-06-15T07:53:22.535Z,3.60
2019-06-15T07:55:53.506Z,6.27
2019-06-15T07:58:25.044Z,10.93
2019-06-15T08:00:56.091Z,7.63
2019-06-15T08:03:27.028Z,2.60
2019-06-15T08:05:58.113Z,12.70
2019-06-15T08:08:29.115Z,6.93
2019-06-15T08:11:00.113Z,5.87
2019-06-15T08:13:31.100Z,3.87
2019-06-15T08:16:02.077Z,7.40
2019-06-15T08:18:33.083Z,14.83
2019-06-15T08:21:04.127Z,4.37
2019-06-15T08:23:35.119Z,7.77
2019-06-15T08:26:06.117Z,7.97
2019-06-15T08:28:40.359Z,10.83
2019-06-15T08:31:11.261Z,4.03
2019-06-15T08:33:42.236Z,7.80
2019-06-15T08:36:13.206Z,6.83
2019-06-15T08:38:44.152Z,5.20
2019-06-15T08:41:15.131Z,5.57
2019-06-15T08:43:46.068Z,12.50
2019-06-15T08:46:17.041Z,6.13
2019-06-15T08:48:48.037Z,10.43
2019-06-15T08:51:19.052Z,14.93
2019-06-15T08:53:50.999Z,5.50
2019-06-15T08:56:21.954Z,7.50
2019-06-15T08:58:55.699Z,9.83
2019-06-15T09:01:25.564Z,5.60
2019-06-15T09:03:56.645Z,16.83
2019-06-15T09:06:27.617Z,4.80
2019-06-15T09:08:59.684Z,3.63
2019-06-15T09:11:32.279Z,9.57
2019-06-15T09:14:03.293Z,8.43
2019-06-15T09:16:34.267Z,5.83
2019-06-15T09:19:05.204Z,5.67
2019-06-15T09:21:36.271Z,4.33
2019-06-15T09:24:07.530Z,14.77
2019-06-15T09:26:38.564Z,7.50
2019-06-15T09:29:11.569Z,5.60
2019-06-15T09:31:42.172Z,9.53
2019-06-15T09:34:18.942Z,6.80
2019-06-15T09:36:45.815Z,14.70
2019-06-15T09:39:16.990Z,13.83
2019-06-15T09:41:48.065Z,10.47
2019-06-15T09:44:20.027Z,7.23
2019-06-15T09:46:50.994Z,5.67
2019-06-15T09:49:21.941Z,11.93
2019-06-15T09:51:52.917Z,8.70
2019-06-15T09:54:23.899Z,6.57
2019-06-15T09:56:54.905Z,4.00
2019-06-15T09:59:26.549Z,9.40
2019-06-15T10:01:57.484Z,5.33
2019-06-15T10:04:28.452Z,6.10
2019-06-15T10:06:59.400Z,12.93
2019-06-15T10:09:30.485Z,12.53
2019-06-15T10:12:01.493Z,4.73
2019-06-15T10:14:32.476Z,6.60
2019-06-15T10:17:03.407Z,9.17
2019-06-15T10:19:34.374Z,4.10
2019-06-15T10:22:05.315Z,14.00
2019-06-15T10:24:36.286Z,9.50
2019-06-15T10:27:07.230Z,11.13
2019-06-15T10:29:41.916Z,5.50
2019-06-15T10:32:10.849Z,11.50
2019-06-15T10:34:41.870Z,11.10
2019-06-15T10:37:12.811Z,7.93
2019-06-15T10:39:43.782Z,5.47
2019-06-15T10:42:14.845Z,17.77
2019-06-15T10:44:46.884Z,12.43
2019-06-15T10:47:17.831Z,9.47
2019-06-15T10:49:48.838Z,10.27
2019-06-15T10:52:19.907Z,7.07
2019-06-15T10:54:50.846Z,25.47
2019-06-15T10:57:21.811Z,4.97
2019-06-15T10:59:57.190Z,7.90
2019-06-15T11:02:25.419Z,14.73
2019-06-15T11:04:56.360Z,14.43
2019-06-15T11:07:27.340Z,17.73
2019-06-15T11:09:58.277Z,6.70
2019-06-15T11:12:29.257Z,6.40
2019-06-15T11:15:00.199Z,8.40
2019-06-15T11:17:31.269Z,10.53
2019-06-15T11:20:02.216Z,4.90
2019-06-15T11:22:35.856Z,9.73
2019-06-15T11:25:09.636Z,8.40
2019-06-15T11:27:40.731Z,9.63
2019-06-15T11:30:14.700Z,15.43
2019-06-15T11:32:45.781Z,12.23
2019-06-15T11:35:16.765Z,9.30
2019-06-15T11:37:47.728Z,15.43
2019-06-15T11:40:18.764Z,8.77
2019-06-15T11:42:49.900Z,9.80
2019-06-15T11:45:20.844Z,13.13
2019-06-15T11:47:51.927Z,10.03
2019-06-15T11:50:22.967Z,3.77
2019-06-15T11:52:53.941Z,14.63
2019-06-15T11:55:38.656Z,7.00
2019-06-15T11:57:57.567Z,13.97
2019-06-15T12:00:33.037Z,10.50
2019-06-15T12:03:04.143Z,8.83
2019-06-15T12:05:35.176Z,10.90
2019-06-15T12:08:06.564Z,11.50
2019-06-15T12:10:37.534Z,14.27
2019-06-15T12:13:08.550Z,8.93
2019-06-15T12:15:39.519Z,5.87
2019-06-15T12:18:10.461Z,10.10
2019-06-15T12:20:41.428Z,5.73
2019-06-15T12:23:12.370Z,11.93
2019-06-15T12:25:43.340Z,4.33
2019-06-15T12:28:14.285Z,12.17
2019-06-15T12:30:47.762Z,5.80
2019-06-15T12:33:17.994Z,8.93
2019-06-15T12:35:48.967Z,4.03
2019-06-15T12:38:19.989Z,18.87
2019-06-15T12:40:50.963Z,8.53
2019-06-15T12:43:21.909Z,4.00
2019-06-15T12:45:52.882Z,23.23
2019-06-15T12:48:23.823Z,8.23
2019-06-15T12:50:54.827Z,7.60
2019-06-15T12:53:25.775Z,17.93
2019-06-15T12:55:56.742Z,15.07
2019-06-15T12:58:27.692Z,7.90
2019-06-15T13:01:03.008Z,15.90
2019-06-15T13:03:31.227Z,9.77
2019-06-15T13:06:02.203Z,10.40
2019-06-15T13:08:33.164Z,9.60
2019-06-15T13:11:04.198Z,14.20
2019-06-15T13:13:35.163Z,6.97
2019-06-15T13:16:07.604Z,12.53
2019-06-15T13:18:38.579Z,12.27
2019-06-15T13:21:09.523Z,8.90
2019-06-15T13:23:40.498Z,11.53
2019-06-15T13:26:11.446Z,12.20
2019-06-15T13:28:42.426Z,13.40
2019-06-15T13:31:18.214Z,10.57
2019-06-15T13:33:47.056Z,8.43
2019-06-15T13:36:18.008Z,10.90
2019-06-15T13:38:49.047Z,15.57
2019-06-15T13:41:19.989Z,12.97
2019-06-15T13:43:50.965Z,22.87
2019-06-15T13:46:22.901Z,3.70
2019-06-15T13:48:53.899Z,7.23
2019-06-15T13:51:24.840Z,7.20
2019-06-15T13:53:55.813Z,10.67
2019-06-15T13:56:26.751Z,5.73
2019-06-15T13:58:57.718Z,7.63
2019-06-15T14:01:34.459Z,6.93
2019-06-15T14:04:04.003Z,10.13
2019-06-15T14:06:34.943Z,12.70
2019-06-15T14:09:07.943Z,8.03
2019-06-15T14:11:38.868Z,12.30
2019-06-15T14:14:09.844Z,6.53
2019-06-15T14:16:40.795Z,16.60
2019-06-15T14:19:11.767Z,16.23
2019-06-15T14:21:42.739Z,10.93
2019-06-15T14:24:13.707Z,9.03
2019-06-15T14:26:44.695Z,13.07
2019-06-15T14:29:17.499Z,14.00
2019-06-15T14:31:50.436Z,40.87
2019-06-15T14:34:21.012Z,102.57
2019-06-15T14:36:52.017Z,6.90
2019-06-15T14:39:22.952Z,12.10
2019-06-15T14:41:53.860Z,6.33
2019-06-15T14:44:24.797Z,6.80
2019-06-15T14:46:55.772Z,6.97
2019-06-15T14:49:26.788Z,9.10
2019-06-15T14:51:57.751Z,8.03
2019-06-15T14:54:28.690Z,7.93
2019-06-15T14:56:59.668Z,8.97
2019-06-15T14:59:31.103Z,7.00
2019-06-15T15:02:10.135Z,19.23
2019-06-15T15:04:36.775Z,19.33
2019-06-15T15:07:07.872Z,27.53
2019-06-15T15:09:38.840Z,36.47
2019-06-15T15:12:11.360Z,34.27
2019-06-15T15:14:42.309Z,12.47
2019-06-15T15:17:13.333Z,2.77
2019-06-15T15:19:46.495Z,9.90
2019-06-15T15:22:17.968Z,9.93
2019-06-15T15:24:48.962Z,6.00
2019-06-15T15:27:20.277Z,6.30
2019-06-15T15:29:51.425Z,7.77
2019-06-15T15:32:27.439Z,6.60
2019-06-15T15:34:56.044Z,8.70
2019-06-15T15:37:27.154Z,6.97
2019-06-15T15:39:58.124Z,11.73
2019-06-15T15:42:29.062Z,8.40
2019-06-15T15:45:00.103Z,7.13
2019-06-15T15:47:33.071Z,12.67
2019-06-15T15:50:08.412Z,4.47
2019-06-15T15:52:39.358Z,10.53
2019-06-15T15:55:10.247Z,2.17
2019-06-15T15:57:41.185Z,6.93
2019-06-15T16:00:26.923Z,14.17
2019-06-15T16:02:58.064Z,6.63
2019-06-15T16:05:29.049Z,8.17
2019-06-15T16:08:00.003Z,11.70
2019-06-15T16:10:30.972Z,10.00
2019-06-15T16:13:01.909Z,6.13
2019-06-15T16:15:32.875Z,7.77
2019-06-15T16:18:06.570Z,13.40
2019-06-15T16:20:36.963Z,6.43
2019-06-15T16:23:08.207Z,4.53
2019-06-15T16:25:39.180Z,7.93
2019-06-15T16:28:10.131Z,10.00
2019-06-15T16:31:01.886Z,11.20
2019-06-15T16:33:16.033Z,6.57
2019-06-15T16:35:46.810Z,6.30
2019-06-15T16:38:19.563Z,8.50
2019-06-15T16:40:50.512Z,10.10
2019-06-15T16:43:25.127Z,7.83
2019-06-15T16:45:54.152Z,9.57
2019-06-15T16:48:26.130Z,6.63
2019-06-15T16:50:57.753Z,5.80
2019-06-15T16:53:28.983Z,7.50
2019-06-15T16:55:59.964Z,7.50
2019-06-15T16:58:30.939Z,10.30
2019-06-15T17:01:01.880Z,9.70
2019-06-15T17:03:32.865Z,21.13
2019-06-15T17:06:06.880Z,7.27
2019-06-15T17:08:36.979Z,5.70
2019-06-15T17:11:08.009Z,6.10
2019-06-15T17:13:38.983Z,11.27
2019-06-15T17:16:09.981Z,6.27
2019-06-15T17:18:41.022Z,8.43
2019-06-15T17:21:12.966Z,8.00
2019-06-15T17:23:46.555Z,5.77
2019-06-15T17:26:17.002Z,3.27
2019-06-15T17:28:49.028Z,5.43
2019-06-15T17:31:19.972Z,6.40
2019-06-15T17:33:50.946Z,12.33
2019-06-15T17:36:22.390Z,8.77
2019-06-15T17:38:53.364Z,15.27
2019-06-15T17:41:26.399Z,6.27
2019-06-15T17:43:56.978Z,11.03
2019-06-15T17:46:29.919Z,6.87
2019-06-15T17:49:00.584Z,4.00
2019-06-15T17:51:31.539Z,11.63
2019-06-15T17:54:02.625Z,15.00
2019-06-15T17:56:33.602Z,19.47
2019-06-15T17:59:06.492Z,6.83
2019-06-15T18:01:37.601Z,5.77
2019-06-15T18:04:08.570Z,7.73
2019-06-15T18:06:39.514Z,11.10
2019-06-15T18:09:10.486Z,7.23
2019-06-15T18:11:41.424Z,8.30
2019-06-15T18:14:12.395Z,12.13
2019-06-15T18:16:43.364Z,5.80
2019-06-15T18:19:16.789Z,10.57
2019-06-15T18:21:48.008Z,11.80
2019-06-15T18:24:18.989Z,14.17
2019-06-15T18:26:50.073Z,4.67
2019-06-15T18:29:21.022Z,7.27
2019-06-15T18:31:51.997Z,5.83
2019-06-15T18:34:22.927Z,15.10
2019-06-15T18:36:56.050Z,5.80
2019-06-15T18:39:26.542Z,5.33
2019-06-15T18:41:57.520Z,7.90
2019-06-15T18:44:28.455Z,9.17
2019-06-15T18:46:59.434Z,9.40
2019-06-15T18:49:30.444Z,4.07
2019-06-15T18:52:01.413Z,6.97
2019-06-15T18:54:32.353Z,8.57
2019-06-15T18:57:03.332Z,10.13
2019-06-15T18:59:36.499Z,5.63
2019-06-15T19:02:06.958Z,5.60
2019-06-15T19:04:37.918Z,6.70
2019-06-15T19:07:08.888Z,15.33
2019-06-15T19:09:39.845Z,5.30
2019-06-15T19:12:11.813Z,6.40
2019-06-15T19:14:42.772Z,18.57
2019-06-15T19:17:13.818Z,10.97
2019-06-15T19:19:46.764Z,10.80
2019-06-15T19:22:17.441Z,8.33
2019-06-15T19:24:50.606Z,4.13
2019-06-15T19:27:21.050Z,10.10
2019-06-15T19:29:51.990Z,5.30
2019-06-15T19:32:22.978Z,3.60
2019-06-15T19:34:53.918Z,7.60
2019-06-15T19:37:26.080Z,14.90
2019-06-15T19:39:57.160Z,18.67
2019-06-15T19:42:28.141Z,14.17
2019-06-15T19:44:59.081Z,5.50
2019-06-15T19:47:32.757Z,8.53
2019-06-15T19:50:03.763Z,11.80
2019-06-15T19:52:36.084Z,5.30
2019-06-15T19:55:08.469Z,5.90
2019-06-15T19:57:39.449Z,14.20
2019-06-15T20:00:10.901Z,5.57
2019-06-15T20:02:42.351Z,11.90
2019-06-15T20:05:15.249Z,6.47
2019-06-15T20:07:46.697Z,9.30
2019-06-15T20:10:17.845Z,4.53
2019-06-15T20:12:48.843Z,6.10
2019-06-15T20:15:19.943Z,6.10
2019-06-15T20:17:50.914Z,4.70
2019-06-15T20:20:21.886Z,4.20
2019-06-15T20:22:52.876Z,3.20
2019-06-15T20:25:23.845Z,11.20
2019-06-15T20:27:56.421Z,14.43
2019-06-15T20:30:27.447Z,3.93
2019-06-15T20:32:58.418Z,8.60
2019-06-15T20:35:29.358Z,5.57
2019-06-15T20:38:00.329Z,3.00
2019-06-15T20:40:31.266Z,1.83
2019-06-15T20:43:02.247Z,3.03
2019-06-15T20:45:33.187Z,4.80
2019-06-15T20:48:06.614Z,3.53
2019-06-15T20:50:36.796Z,2.50
2019-06-15T20:53:07.816Z,10.23
2019-06-15T20:55:38.764Z,5.57
2019-06-15T20:58:09.733Z,6.60
2019-06-15T21:00:40.698Z,2.57
2019-06-15T21:03:11.735Z,9.03
2019-06-15T21:05:42.668Z,2.43
2019-06-15T21:08:15.848Z,6.00
2019-06-15T21:10:47.266Z,5.87
2019-06-15T21:13:19.240Z,5.83
2019-06-15T21:15:50.175Z,1.97
2019-06-15T21:18:21.754Z,2.03
2019-06-15T21:20:52.703Z,5.70
2019-06-15T21:23:23.666Z,2.67
2019-06-15T21:25:56.901Z,7.57
2019-06-15T21:28:27.496Z,4.57
2019-06-15T21:30:58.477Z,3.93
2019-06-15T21:33:29.462Z,7.20
2019-06-15T21:36:00.446Z,6.90
2019-06-15T21:38:31.427Z,5.80
2019-06-15T21:41:02.377Z,1.90
2019-06-15T21:43:33.355Z,5.60
2019-06-15T21:46:06.375Z,8.03
2019-06-15T21:48:37.116Z,9.33
2019-06-15T21:51:08.228Z,4.20
2019-06-15T21:53:39.215Z,3.63
2019-06-15T21:56:10.155Z,9.30
2019-06-15T21:58:41.151Z,4.83
2019-06-15T22:01:31.228Z,2.73
2019-06-15T22:04:02.287Z,2.10
2019-06-15T22:06:33.225Z,9.70
2019-06-15T22:09:06.513Z,8.67
2019-06-15T22:11:37.654Z,7.00
2019-06-15T22:14:08.637Z,3.07
2019-06-15T22:16:39.584Z,2.93
2019-06-15T22:19:10.653Z,9.57
2019-06-15T22:21:41.593Z,4.30
2019-06-15T22:24:12.572Z,6.63
2019-06-15T22:26:43.512Z,14.63
2019-06-15T22:29:16.608Z,16.03
2019-06-15T22:31:47.184Z,5.23
2019-06-15T22:34:18.225Z,3.83
2019-06-15T22:36:49.158Z,2.30
2019-06-15T22:39:20.217Z,3.80
2019-06-15T22:41:51.254Z,10.18
2019-06-15T22:44:22.231Z,0.85
2019-06-15T22:46:53.233Z,5.65
2019-06-15T22:49:24.221Z,2.15
2019-06-15T22:51:56.887Z,5.08
2019-06-15T22:54:27.957Z,3.25
2019-06-15T22:56:58.892Z,4.80
2019-06-15T22:59:29.926Z,4.67
2019-06-15T23:02:00.865Z,8.33
2019-06-15T23:04:31.891Z,9.60
2019-06-15T23:07:02.867Z,2.67
2019-06-15T23:09:35.950Z,4.25
2019-06-15T23:12:07.120Z,2.67
2019-06-15T23:14:38.257Z,9.78
2019-06-15T23:17:09.282Z,2.12
2019-06-15T23:19:40.315Z,4.10
2019-06-15T23:22:12.260Z,3.12
2019-06-15T23:24:43.255Z,8.48
2019-06-15T23:27:16.432Z,7.35
2019-06-15T23:29:46.956Z,4.78
2019-06-15T23:32:20.657Z,9.20
2019-06-15T23:34:50.509Z,4.10
2019-06-15T23:37:22.885Z,5.40
2019-06-15T23:40:11.493Z,8.68
2019-06-15T23:42:42.473Z,2.83
2019-06-15T23:45:15.979Z,6.37
2019-06-15T23:47:46.776Z,4.70
2019-06-15T23:50:19.358Z,5.30
2019-06-15T23:52:50.337Z,4.35
2019-06-15T23:55:22.282Z,5.60
2019-06-15T23:57:53.270Z,6.67
